Time;durP1;ratioP1;P1;durP2;ratioP2;P2;SDS_P1;SDS_P2;PMS_P1;PMS_P2;Temp;Humidity;BMP_temperature;BMP_pressure;BME280_temperature;BME280_humidity;BME280_pressure;Samples;Min_cycle;Max_cycle;Signal;HPM_P1;HPM_P2
2022/07/08 00:02:05;;;;;;;10.98;1.95;;;15.40;99.90;;;;;;5081014;28;20039;-78
2022/07/08 00:04:31;;;;;;;15.15;2.65;;;15.30;99.90;;;;;;5082190;28;20044;-78
2022/07/08 00:06:57;;;;;;;9.90;1.73;;;15.30;99.90;;;;;;5081035;28;20044;-78
2022/07/08 00:09:23;;;;;;;16.17;2.40;;;15.30;99.90;;;;;;5082235;28;20044;-77
2022/07/08 00:11:48;;;;;;;13.93;2.70;;;15.30;99.90;;;;;;5080185;28;20475;-77
2022/07/08 00:14:14;;;;;;;13.23;1.98;;;15.40;99.90;;;;;;5083512;28;20041;-77
2022/07/08 00:16:40;;;;;;;7.25;1.75;;;15.30;99.90;;;;;;5078650;28;20047;-78
2022/07/08 00:19:07;;;;;;;8.85;2.25;;;15.30;99.90;;;;;;5076391;28;20037;-77
2022/07/08 00:21:33;;;;;;;16.30;2.72;;;15.30;99.90;;;;;;5078405;28;20051;-77
2022/07/08 00:23:59;;;;;;;9.55;2.10;;;15.30;99.90;;;;;;5081916;28;20040;-78
2022/07/08 00:26:24;;;;;;;9.38;2.60;;;15.30;99.90;;;;;;5083490;28;20438;-78
2022/07/08 00:28:50;;;;;;;15.40;2.50;;;15.30;99.90;;;;;;5082351;28;20040;-78
2022/07/08 00:31:16;;;;;;;21.88;2.95;;;15.30;99.90;;;;;;5081500;28;20051;-77
2022/07/08 00:33:42;;;;;;;11.57;2.40;;;15.30;99.90;;;;;;5080387;28;20079;-78
2022/07/08 00:36:07;;;;;;;12.20;2.95;;;15.30;99.90;;;;;;5081020;28;20123;-78
2022/07/08 00:38:33;;;;;;;13.02;2.75;;;15.30;99.90;;;;;;5098807;28;20045;-78
2022/07/08 00:40:59;;;;;;;15.95;2.88;;;15.20;99.90;;;;;;5081098;28;20040;-78
2022/07/08 00:43:37;;;;;;;11.77;2.45;;;15.20;99.90;;;;;;5082269;28;20109;-78
2022/07/08 00:46:03;;;;;;;12.55;2.63;;;15.10;99.90;;;;;;5081403;28;20055;-77
2022/07/08 00:48:29;;;;;;;14.73;2.63;;;15.20;99.90;;;;;;5080469;28;20047;-77
2022/07/08 00:50:57;;;;;;;11.77;2.10;;;15.20;99.90;;;;;;5081350;28;20348;-77
2022/07/08 00:53:23;;;;;;;11.50;2.35;;;15.10;99.90;;;;;;5082755;28;20601;-78
2022/07/08 00:55:48;;;;;;;12.52;3.05;;;15.10;99.90;;;;;;5097245;28;20044;-78
2022/07/08 00:58:15;;;;;;;18.45;2.53;;;15.00;99.90;;;;;;5081112;28;20068;-78
2022/07/08 01:00:41;;;;;;;7.30;1.98;;;15.00;99.90;;;;;;5098544;28;20044;-77
2022/07/08 01:03:07;;;;;;;11.85;2.30;;;15.00;99.90;;;;;;5081354;28;20049;-78
2022/07/08 01:05:32;;;;;;;10.13;2.30;;;14.90;99.90;;;;;;5081328;28;20050;-77
2022/07/08 01:07:58;;;;;;;12.55;3.22;;;14.90;99.90;;;;;;5082485;28;20041;-77
2022/07/08 01:10:24;;;;;;;9.85;2.40;;;14.90;99.90;;;;;;5082927;28;20041;-78
2022/07/08 01:12:50;;;;;;;12.88;2.35;;;14.90;99.90;;;;;;5078425;28;20093;-77
2022/07/08 01:15:16;;;;;;;10.70;2.85;;;14.80;99.90;;;;;;5079499;28;20052;-77
2022/07/08 01:17:45;;;;;;;12.88;2.80;;;14.90;99.90;;;;;;5082037;28;20048;-77
2022/07/08 01:20:12;;;;;;;12.73;3.33;;;14.80;99.90;;;;;;5078635;28;20052;-77
2022/07/08 01:22:38;;;;;;;16.60;3.22;;;14.80;99.90;;;;;;5080719;28;20490;-77
2022/07/08 01:25:24;;;;;;;11.73;2.20;;;14.80;99.90;;;;;;5080038;28;20045;-77
2022/07/08 01:27:50;;;;;;;11.32;2.42;;;14.90;99.90;;;;;;5079527;28;20154;-77
2022/07/08 01:30:16;;;;;;;11.43;2.17;;;14.90;99.90;;;;;;5078048;28;20125;-78
2022/07/08 01:32:42;;;;;;;17.25;2.53;;;14.90;99.90;;;;;;5079250;28;20045;-77
2022/07/08 01:35:09;;;;;;;16.67;3.28;;;14.80;99.90;;;;;;5081122;28;20051;-77
2022/07/08 01:37:35;;;;;;;13.45;2.67;;;14.80;99.90;;;;;;5079391;28;20071;-77
2022/07/08 01:40:01;;;;;;;19.00;2.70;;;14.80;99.90;;;;;;5077697;28;20102;-77
2022/07/08 01:42:26;;;;;;;12.27;2.13;;;14.80;99.90;;;;;;5079507;28;20032;-77
2022/07/08 01:44:54;;;;;;;12.80;2.65;;;14.80;99.90;;;;;;5079406;28;20074;-77
2022/07/08 01:47:20;;;;;;;15.45;2.45;;;14.80;99.90;;;;;;5081277;28;20052;-77
2022/07/08 01:49:45;;;;;;;10.75;2.20;;;14.80;99.90;;;;;;5082082;28;20028;-77
2022/07/08 01:52:12;;;;;;;12.27;2.60;;;14.80;99.90;;;;;;5081077;28;20040;-78
2022/07/08 01:54:37;;;;;;;13.27;3.38;;;14.80;99.90;;;;;;5081090;28;20041;-77
2022/07/08 01:57:15;;;;;;;12.48;2.20;;;14.80;99.90;;;;;;5079249;28;20086;-77
2022/07/08 01:59:44;;;;;;;16.60;2.65;;;14.80;99.90;;;;;;5097560;28;20058;-77
2022/07/08 02:02:11;;;;;;;8.82;2.03;;;14.80;99.90;;;;;;5079612;28;20548;-77
2022/07/08 02:04:37;;;;;;;10.88;2.40;;;14.80;99.90;;;;;;5081312;28;20510;-78
2022/07/08 02:07:03;;;;;;;17.13;3.30;;;14.70;99.90;;;;;;5079483;28;20028;-77
2022/07/08 02:09:29;;;;;;;17.33;3.40;;;14.80;99.90;;;;;;5081156;28;20486;-78
2022/07/08 02:15:04;;;;;;;13.98;2.60;;;14.80;99.90;;;;;;5041047;28;20052;-77
2022/07/08 02:17:38;;;;;;;11.65;3.33;;;14.80;99.90;;;;;;5057185;28;20067;-78
2022/07/08 02:20:10;;;;;;;16.92;2.30;;;14.80;99.90;;;;;;5068495;28;20518;-77
2022/07/08 02:22:55;;;;;;;18.08;3.25;;;14.80;99.90;;;;;;5079408;28;20182;-77
2022/07/08 02:25:20;;;;;;;16.30;2.97;;;14.80;99.90;;;;;;5078941;28;20080;-78
2022/07/08 02:27:46;;;;;;;13.20;2.55;;;14.80;99.90;;;;;;5080049;28;20490;-77
2022/07/08 02:30:12;;;;;;;10.38;2.95;;;14.80;99.90;;;;;;5080019;28;20039;-78
2022/07/08 02:32:39;;;;;;;13.07;2.60;;;14.80;99.90;;;;;;5081504;28;20086;-78
2022/07/08 02:35:09;;;;;;;15.68;2.28;;;14.80;99.90;;;;;;5081202;28;20072;-77
2022/07/08 02:37:35;;;;;;;11.32;2.85;;;14.80;99.90;;;;;;5080064;28;20049;-77
2022/07/08 02:40:00;;;;;;;18.25;3.25;;;14.80;99.90;;;;;;5095439;28;20567;-78
2022/07/08 02:42:26;;;;;;;9.20;2.25;;;14.80;99.90;;;;;;5078085;28;20045;-77
2022/07/08 02:44:52;;;;;;;15.40;3.70;;;14.80;99.90;;;;;;5076261;28;20051;-77
2022/07/08 02:47:17;;;;;;;16.42;2.65;;;14.90;99.90;;;;;;5080304;28;20036;-78
2022/07/08 02:49:43;;;;;;;19.63;2.78;;;14.90;99.90;;;;;;5078190;28;20086;-77
2022/07/08 02:52:08;;;;;;;19.50;3.10;;;14.90;99.90;;;;;;5078998;28;20041;-77
2022/07/08 02:54:34;;;;;;;18.02;3.33;;;14.90;99.90;;;;;;5079937;28;20055;-78
2022/07/08 02:56:59;;;;;;;18.65;3.30;;;14.90;99.90;;;;;;5077866;28;20083;-78
2022/07/08 02:59:25;;;;;;;16.17;2.45;;;14.90;99.90;;;;;;5077505;28;20119;-78
2022/07/08 03:01:51;;;;;;;14.90;3.00;;;14.90;99.90;;;;;;5078784;28;20037;-78
2022/07/08 03:04:16;;;;;;;22.60;3.42;;;14.80;99.90;;;;;;5077603;28;20027;-78
2022/07/08 03:06:42;;;;;;;15.30;2.90;;;14.90;99.90;;;;;;5073623;28;20036;-78
2022/07/08 03:09:08;;;;;;;23.25;2.95;;;14.90;99.90;;;;;;5088953;28;20056;-77
2022/07/08 03:11:33;;;;;;;17.33;3.38;;;14.90;99.90;;;;;;5088281;28;20137;-78
2022/07/08 03:13:59;;;;;;;22.30;3.35;;;14.90;99.90;;;;;;5072051;28;20489;-77
2022/07/08 03:16:25;;;;;;;14.27;3.28;;;15.00;99.90;;;;;;5088571;28;20050;-78
2022/07/08 03:18:50;;;;;;;15.23;3.00;;;15.00;99.90;;;;;;5073726;28;20547;-78
2022/07/08 03:21:16;;;;;;;22.30;4.32;;;14.90;99.90;;;;;;5073298;28;20548;-78
2022/07/08 03:23:41;;;;;;;14.05;3.17;;;15.00;99.90;;;;;;5073320;28;20080;-78
2022/07/08 03:26:07;;;;;;;15.50;2.80;;;15.00;99.90;;;;;;5073503;28;20079;-78
2022/07/08 03:28:33;;;;;;;17.38;3.45;;;15.00;99.90;;;;;;5073483;28;20037;-78
2022/07/08 03:30:58;;;;;;;14.77;2.78;;;15.10;99.90;;;;;;5073188;28;20151;-78
2022/07/08 03:33:24;;;;;;;14.65;3.00;;;15.10;99.90;;;;;;5073278;28;20045;-78
2022/07/08 03:35:50;;;;;;;18.38;3.50;;;15.20;99.90;;;;;;5074309;28;20079;-78
2022/07/08 03:38:16;;;;;;;12.93;3.10;;;15.10;99.90;;;;;;5077393;28;20459;-78
2022/07/08 03:43:26;;;;;;;15.85;4.30;;;15.20;99.90;;;;;;5076975;28;20060;-77
2022/07/08 03:45:52;;;;;;;10.88;2.92;;;15.20;99.90;;;;;;5077333;28;20398;-78
2022/07/08 03:48:18;;;;;;;20.20;3.22;;;15.20;99.90;;;;;;5076955;28;20143;-78
2022/07/08 03:50:43;;;;;;;13.23;2.55;;;15.20;99.90;;;;;;5077270;28;20044;-78
2022/07/08 03:53:09;;;;;;;17.30;2.97;;;15.30;99.90;;;;;;5077120;28;20045;-78
2022/07/08 03:55:35;;;;;;;18.70;4.05;;;15.30;99.90;;;;;;5092557;28;20049;-78
2022/07/08 03:58:00;;;;;;;13.63;2.70;;;15.30;99.90;;;;;;5076805;28;20056;-78
2022/07/08 04:00:26;;;;;;;13.00;2.78;;;15.30;99.90;;;;;;5075503;28;20040;-78
2022/07/08 04:02:52;;;;;;;14.55;3.03;;;15.30;99.90;;;;;;5075712;28;20075;-78
2022/07/08 04:05:17;;;;;;;20.95;3.58;;;15.40;99.90;;;;;;5076871;28;20399;-78
2022/07/08 04:07:43;;;;;;;21.35;3.28;;;15.40;99.90;;;;;;5076883;28;20068;-78
2022/07/08 04:10:09;;;;;;;16.63;2.90;;;15.40;99.90;;;;;;5076759;28;20479;-78
2022/07/08 04:12:34;;;;;;;18.58;3.70;;;15.40;99.90;;;;;;5076772;28;20037;-78
2022/07/08 04:15:00;;;;;;;17.35;3.30;;;15.40;99.90;;;;;;5076721;28;20044;-78
2022/07/08 04:17:26;;;;;;;15.75;3.22;;;15.50;99.90;;;;;;5076702;28;20044;-78
2022/07/08 04:19:52;;;;;;;15.13;3.13;;;15.50;99.90;;;;;;5076161;28;20060;-78
2022/07/08 04:22:18;;;;;;;13.00;3.05;;;15.50;99.90;;;;;;5076373;28;20487;-77
2022/07/08 04:24:44;;;;;;;15.45;2.80;;;15.50;99.90;;;;;;5076444;28;20051;-78
2022/07/08 04:27:10;;;;;;;11.70;3.03;;;15.50;99.90;;;;;;5092004;28;20101;-78
2022/07/08 04:29:36;;;;;;;19.48;3.50;;;15.60;99.90;;;;;;5076414;28;20127;-78
2022/07/08 04:32:01;;;;;;;19.95;3.15;;;15.60;99.90;;;;;;5091723;28;20132;-78
2022/07/08 04:34:27;;;;;;;12.38;3.08;;;15.60;99.90;;;;;;5076325;28;20059;-78
2022/07/08 04:36:53;;;;;;;14.23;3.25;;;15.60;99.90;;;;;;5076783;28;20123;-78
2022/07/08 04:39:18;;;;;;;17.58;3.35;;;15.70;99.90;;;;;;5092101;28;20437;-78
2022/07/08 04:41:44;;;;;;;13.55;3.15;;;15.70;99.90;;;;;;5075863;28;20040;-78
2022/07/08 04:44:09;;;;;;;19.60;3.53;;;15.80;99.90;;;;;;5091430;28;20151;-78
2022/07/08 04:46:35;;;;;;;14.43;3.28;;;15.80;99.90;;;;;;5091170;28;20094;-78
2022/07/08 04:49:01;;;;;;;19.88;3.00;;;15.80;99.90;;;;;;5076064;28;20049;-78
2022/07/08 04:51:27;;;;;;;18.45;2.88;;;15.90;99.90;;;;;;5074593;28;20123;-78
2022/07/08 04:53:52;;;;;;;15.18;2.95;;;15.90;99.90;;;;;;5091614;28;20127;-78
2022/07/08 04:56:18;;;;;;;22.33;3.70;;;15.90;99.90;;;;;;5075728;28;20048;-78
2022/07/08 04:58:43;;;;;;;16.77;4.28;;;16.00;99.90;;;;;;5075893;28;20044;-78
2022/07/08 05:01:09;;;;;;;13.77;2.90;;;16.00;99.90;;;;;;5075811;28;20505;-78
2022/07/08 05:03:35;;;;;;;16.35;3.63;;;16.00;99.90;;;;;;5091146;28;20048;-78
2022/07/08 05:06:00;;;;;;;20.00;4.38;;;16.10;99.90;;;;;;5075571;28;20044;-78
2022/07/08 05:08:26;;;;;;;15.40;3.63;;;16.10;99.90;;;;;;5075729;28;20041;-78
2022/07/08 05:10:52;;;;;;;16.00;2.78;;;16.10;99.90;;;;;;5074159;28;20051;-78
2022/07/08 05:13:17;;;;;;;14.88;3.67;;;16.20;99.90;;;;;;5075638;28;20585;-78
2022/07/08 05:15:43;;;;;;;12.45;2.95;;;16.10;99.90;;;;;;5091239;28;20040;-78
2022/07/08 05:18:09;;;;;;;17.40;3.60;;;16.20;99.90;;;;;;5075303;28;20106;-78
2022/07/08 05:20:36;;;;;;;15.25;2.70;;;16.20;99.90;;;;;;5090683;28;20541;-78
2022/07/08 05:23:02;;;;;;;16.58;3.28;;;16.20;99.90;;;;;;5075138;28;20517;-78
2022/07/08 05:25:27;;;;;;;12.75;2.70;;;16.20;99.90;;;;;;5090605;28;20495;-78
2022/07/08 05:27:53;;;;;;;14.07;2.97;;;16.20;99.90;;;;;;5075346;28;20127;-78
2022/07/08 05:30:18;;;;;;;23.92;4.70;;;16.30;99.90;;;;;;5075254;28;20046;-78
2022/07/08 05:32:45;;;;;;;24.38;4.53;;;16.40;99.90;;;;;;5075273;28;20036;-79
2022/07/08 05:35:11;;;;;;;15.88;3.22;;;16.30;99.90;;;;;;5075211;28;20037;-78
2022/07/08 05:37:38;;;;;;;16.65;3.28;;;16.40;99.90;;;;;;5075185;28;20398;-78
2022/07/08 05:40:08;;;;;;;21.23;3.88;;;16.40;99.90;;;;;;5074784;28;20499;-78
2022/07/08 05:42:33;;;;;;;12.38;2.97;;;16.40;99.90;;;;;;5090506;28;20048;-78
2022/07/08 05:45:03;;;;;;;13.10;3.00;;;16.40;99.90;;;;;;5074865;28;20044;-78
2022/07/08 05:47:29;;;;;;;15.15;3.90;;;16.40;99.90;;;;;;5074964;28;20123;-78
2022/07/08 05:49:54;;;;;;;12.35;3.08;;;16.50;99.90;;;;;;5090305;28;20124;-78
2022/07/08 05:52:20;;;;;;;14.90;3.10;;;16.50;99.90;;;;;;5074625;28;20128;-78
2022/07/08 05:54:46;;;;;;;14.65;2.90;;;16.50;99.90;;;;;;5074824;28;20056;-78
2022/07/08 05:57:13;;;;;;;15.98;3.47;;;16.50;99.90;;;;;;5073438;28;20048;-78
2022/07/08 05:59:39;;;;;;;13.02;3.30;;;16.50;99.90;;;;;;5073886;28;20048;-78
2022/07/08 06:02:05;;;;;;;22.13;4.45;;;16.50;99.90;;;;;;5074628;28;20097;-78
2022/07/08 06:04:30;;;;;;;12.35;3.00;;;16.50;99.90;;;;;;5074543;28;20198;-78
2022/07/08 06:06:57;;;;;;;11.75;3.00;;;16.50;99.90;;;;;;5074502;28;20036;-78
2022/07/08 06:09:22;;;;;;;15.65;3.20;;;16.50;99.90;;;;;;5073060;28;20513;-78
2022/07/08 06:11:48;;;;;;;11.65;2.83;;;16.60;99.90;;;;;;5074451;28;20044;-78
2022/07/08 06:14:14;;;;;;;15.48;4.30;;;16.60;99.90;;;;;;5089837;28;20113;-78
2022/07/08 06:16:39;;;;;;;13.13;3.10;;;16.80;99.90;;;;;;5074355;28;20048;-78
2022/07/08 06:19:05;;;;;;;18.58;3.53;;;17.00;99.90;;;;;;5074213;28;20094;-78
2022/07/08 06:21:31;;;;;;;16.50;3.40;;;17.30;99.90;;;;;;5073967;28;20080;-78
2022/07/08 06:23:57;;;;;;;14.98;2.97;;;17.40;99.90;;;;;;5073849;28;20473;-78
2022/07/08 06:26:22;;;;;;;18.33;3.65;;;17.50;99.90;;;;;;5074195;28;20044;-78
2022/07/08 06:28:48;;;;;;;13.93;3.88;;;17.50;99.90;;;;;;5073999;28;20493;-78
2022/07/08 06:31:14;;;;;;;18.95;4.60;;;17.50;99.90;;;;;;5074105;28;20084;-78
2022/07/08 06:33:39;;;;;;;17.08;3.75;;;17.50;99.90;;;;;;5074074;28;20040;-79
2022/07/08 06:36:05;;;;;;;17.52;3.72;;;17.50;99.90;;;;;;5089636;28;20044;-79
2022/07/08 06:38:31;;;;;;;22.38;4.57;;;17.60;99.90;;;;;;5074039;28;20064;-79
2022/07/08 06:40:56;;;;;;;13.60;3.40;;;17.70;99.90;;;;;;5073965;28;20068;-78
2022/07/08 06:43:22;;;;;;;15.63;3.60;;;17.70;99.90;;;;;;5073963;28;20051;-78
2022/07/08 06:45:48;;;;;;;17.63;3.72;;;17.80;99.90;;;;;;5073760;28;20041;-78
2022/07/08 06:48:14;;;;;;;13.48;3.38;;;17.90;99.90;;;;;;5073771;28;20097;-78
2022/07/08 06:50:40;;;;;;;20.60;4.53;;;17.80;99.90;;;;;;5088767;28;20052;-77
2022/07/08 06:53:05;;;;;;;18.25;4.18;;;17.90;99.90;;;;;;5085039;28;20040;-78
2022/07/08 06:55:31;;;;;;;14.73;4.07;;;17.90;99.90;;;;;;5073416;28;20568;-78
2022/07/08 06:57:57;;;;;;;14.25;4.03;;;17.90;99.90;;;;;;5072111;28;20055;-78
2022/07/08 07:00:23;;;;;;;18.67;3.85;;;18.00;99.90;;;;;;5073297;28;20476;-77
2022/07/08 07:02:50;;;;;;;22.55;3.47;;;18.00;99.90;;;;;;5073591;28;20493;-79
2022/07/08 07:05:17;;;;;;;13.20;3.60;;;18.00;99.90;;;;;;5071943;28;20120;-78
2022/07/08 07:07:43;;;;;;;16.30;3.88;;;18.00;99.90;;;;;;5073490;28;20045;-78
2022/07/08 07:10:09;;;;;;;17.58;3.72;;;18.10;99.90;;;;;;5071962;28;20044;-77
2022/07/08 07:12:35;;;;;;;14.25;3.47;;;18.10;99.90;;;;;;5073155;28;20421;-78
2022/07/08 07:15:01;;;;;;;16.98;4.95;;;18.20;99.90;;;;;;5071951;28;20044;-77
2022/07/08 07:17:26;;;;;;;18.85;3.90;;;18.20;99.90;;;;;;5073185;28;20054;-80
2022/07/08 07:19:52;;;;;;;14.82;3.58;;;18.30;99.90;;;;;;5073024;28;20055;-78
2022/07/08 07:22:18;;;;;;;13.75;3.20;;;18.40;99.90;;;;;;5071855;28;20144;-78
2022/07/08 07:24:44;;;;;;;16.73;3.95;;;18.40;99.90;;;;;;5071817;28;20057;-78
2022/07/08 07:27:10;;;;;;;18.75;4.00;;;18.40;99.90;;;;;;5073471;28;20166;-78
2022/07/08 07:29:36;;;;;;;14.75;3.42;;;18.50;99.90;;;;;;5073117;28;20127;-78
2022/07/08 07:32:01;;;;;;;16.95;4.80;;;18.50;99.90;;;;;;5072044;28;20140;-79
2022/07/08 07:34:27;;;;;;;21.70;4.55;;;18.40;99.90;;;;;;5073182;28;20125;-78
2022/07/08 07:36:53;;;;;;;15.88;3.70;;;18.30;99.90;;;;;;5071933;28;20040;-79
2022/07/08 07:39:18;;;;;;;20.77;3.75;;;18.30;99.90;;;;;;5073175;28;20044;-78
2022/07/08 07:41:44;;;;;;;20.67;4.88;;;18.30;99.90;;;;;;5073103;28;20039;-78
2022/07/08 07:44:10;;;;;;;18.23;3.90;;;18.30;99.90;;;;;;5072741;28;20403;-80
2022/07/08 07:46:35;;;;;;;18.27;3.63;;;18.40;99.90;;;;;;5071694;28;20068;-78
2022/07/08 07:49:01;;;;;;;18.45;4.50;;;18.50;99.90;;;;;;5072766;28;20083;-78
2022/07/08 07:51:27;;;;;;;18.33;4.00;;;18.50;99.90;;;;;;5073057;28;20043;-78
2022/07/08 07:53:53;;;;;;;19.00;3.92;;;18.60;99.90;;;;;;5073052;28;20044;-78
2022/07/08 07:56:19;;;;;;;13.68;3.30;;;18.80;99.90;;;;;;5073088;28;20036;-76
2022/07/08 07:58:44;;;;;;;18.73;4.10;;;18.90;99.90;;;;;;5072673;28;20402;-76
2022/07/08 08:01:10;;;;;;;18.50;3.72;;;19.00;99.90;;;;;;5073037;28;20040;-77
2022/07/08 08:03:36;;;;;;;18.88;3.65;;;19.10;99.90;;;;;;5072810;28;20048;-77
2022/07/08 08:06:03;;;;;;;20.02;4.07;;;19.10;99.90;;;;;;5071378;28;20048;-76
2022/07/08 08:08:31;;;;;;;18.88;3.53;;;19.10;99.90;;;;;;5088557;28;20055;-76
2022/07/08 08:10:58;;;;;;;17.75;3.63;;;19.20;99.90;;;;;;5072653;28;20080;-77
2022/07/08 08:13:24;;;;;;;16.40;3.50;;;19.20;99.90;;;;;;5072905;28;20064;-77
2022/07/08 08:15:50;;;;;;;22.15;3.92;;;19.20;99.90;;;;;;5072796;28;20083;-76
2022/07/08 08:18:15;;;;;;;11.80;2.97;;;19.10;99.90;;;;;;5072727;28;20044;-76
2022/07/08 08:20:42;;;;;;;16.27;3.17;;;19.10;99.90;;;;;;5072409;28;20059;-77
2022/07/08 08:23:08;;;;;;;16.92;2.85;;;19.10;99.90;;;;;;5075547;28;20052;-77
2022/07/08 08:25:34;;;;;;;11.73;3.30;;;19.20;99.90;;;;;;5076198;28;20044;-77
2022/07/08 08:28:00;;;;;;;17.35;2.85;;;19.30;99.90;;;;;;5076360;28;20394;-77
2022/07/08 08:30:25;;;;;;;18.52;4.30;;;19.30;99.90;;;;;;5074929;28;20136;-77
2022/07/08 08:32:51;;;;;;;13.57;2.95;;;19.40;99.90;;;;;;5076145;28;20528;-78
2022/07/08 08:35:17;;;;;;;10.77;2.85;;;19.60;99.90;;;;;;5076233;28;20047;-78
2022/07/08 08:37:43;;;;;;;11.88;2.92;;;19.50;99.90;;;;;;5076035;28;20387;-78
2022/07/08 08:40:10;;;;;;;17.20;4.25;;;19.60;99.90;;;;;;5076032;28;20053;-78
2022/07/08 08:42:37;;;;;;;9.80;2.60;;;19.60;99.90;;;;;;5075766;28;20032;-77
2022/07/08 08:45:04;;;;;;;12.88;3.35;;;19.70;99.90;;;;;;5075895;28;20052;-78
2022/07/08 08:47:32;;;;;;;15.85;2.97;;;19.80;99.90;;;;;;5079928;28;20048;-78
2022/07/08 08:50:53;;;;;;;12.20;3.00;;;19.90;99.90;;;;;;5080249;28;20040;-78
2022/07/08 08:52:52;;;;;;;11.40;2.50;;;19.90;99.90;;;;;;5075453;28;20517;-78
2022/07/08 08:55:29;;;;;;;14.60;2.97;;;20.10;99.90;;;;;;5075997;28;20045;-76
2022/07/08 08:58:05;;;;;;;14.70;3.25;;;20.00;99.90;;;;;;5075798;28;20076;-77
2022/07/08 09:00:33;;;;;;;12.07;4.35;;;20.10;99.90;;;;;;5075749;28;20079;-77
2022/07/08 09:03:00;;;;;;;12.95;2.80;;;20.10;99.90;;;;;;5074101;28;20178;-77
2022/07/08 09:05:26;;;;;;;15.10;2.85;;;20.00;99.90;;;;;;5075314;28;20426;-77
2022/07/08 09:07:54;;;;;;;11.93;3.20;;;20.10;99.90;;;;;;5075351;28;20045;-77
2022/07/08 09:10:20;;;;;;;18.10;3.30;;;20.20;99.90;;;;;;5075552;28;20086;-77
2022/07/08 09:13:04;;;;;;;11.48;2.88;;;20.20;99.90;;;;;;5075458;28;20048;-77
2022/07/08 09:15:44;;;;;;;14.55;3.13;;;20.10;99.90;;;;;;5075532;28;20041;-77
2022/07/08 09:18:15;;;;;;;10.65;2.88;;;20.00;99.90;;;;;;5084204;28;20059;-77
2022/07/08 09:20:48;;;;;;;15.40;2.72;;;20.10;99.90;;;;;;5075273;28;20064;-76
2022/07/08 09:23:23;;;;;;;13.60;2.63;;;20.20;99.90;;;;;;5073756;28;20552;-78
2022/07/08 09:25:54;;;;;;;13.30;3.25;;;20.30;99.90;;;;;;5073778;28;20044;-77
2022/07/08 09:28:31;;;;;;;11.73;2.90;;;20.40;99.90;;;;;;5086401;28;20048;-77
2022/07/08 09:30:58;;;;;;;14.35;3.38;;;20.30;99.90;;;;;;5074938;28;20403;-76
2022/07/08 09:33:26;;;;;;;12.02;3.22;;;20.30;99.90;;;;;;5073609;28;20483;-88
2022/07/08 09:35:53;;;;;;;18.65;3.22;;;20.30;99.90;;;;;;5094304;28;20482;-82
2022/07/08 09:38:19;;;;;;;10.60;3.50;;;20.40;99.90;;;;;;5094985;28;20044;-83
2022/07/08 09:41:04;;;;;;;11.45;3.25;;;20.50;99.90;;;;;;5094735;28;20402;-85
2022/07/08 09:43:31;;;;;;;13.50;3.88;;;20.30;99.90;;;;;;5093274;28;20391;-82
2022/07/08 09:46:04;;;;;;;13.00;3.50;;;20.30;99.90;;;;;;5093462;28;20048;-82
2022/07/08 09:48:30;;;;;;;11.73;3.13;;;20.30;99.90;;;;;;5093319;28;20048;-79
2022/07/08 09:50:59;;;;;;;10.68;3.22;;;20.20;99.90;;;;;;5087247;28;20444;-82
2022/07/08 09:53:26;;;;;;;19.73;3.45;;;20.10;99.90;;;;;;5093606;28;20398;-76
2022/07/08 09:55:56;;;;;;;13.77;3.20;;;20.00;99.90;;;;;;5095005;28;20036;-79
2022/07/08 09:58:24;;;;;;;14.38;3.80;;;20.10;99.90;;;;;;5091127;28;20403;-77
2022/07/08 10:00:53;;;;;;;13.02;3.58;;;20.10;99.90;;;;;;5094495;28;20554;-82
2022/07/08 10:03:20;;;;;;;13.52;3.90;;;20.20;99.90;;;;;;5094354;28;20469;-79
2022/07/08 10:05:46;;;;;;;13.30;3.47;;;20.30;99.90;;;;;;5083061;28;20083;-79
2022/07/08 10:08:14;;;;;;;12.70;3.38;;;20.40;99.90;;;;;;5074403;28;20041;-79
2022/07/08 10:10:41;;;;;;;14.20;3.33;;;20.40;99.90;;;;;;5073103;28;20102;-79
2022/07/08 10:13:07;;;;;;;15.68;3.60;;;20.30;99.90;;;;;;5077558;28;20036;-79
2022/07/08 10:15:34;;;;;;;15.10;3.42;;;20.30;99.90;;;;;;5094225;28;20048;-79
2022/07/08 10:18:06;;;;;;;16.48;4.05;;;20.40;99.90;;;;;;5093003;28;20044;-78
2022/07/08 10:20:35;;;;;;;13.05;4.00;;;20.40;99.90;;;;;;5082809;28;20052;-79
2022/07/08 10:23:07;;;;;;;12.40;3.45;;;20.30;99.90;;;;;;5074074;28;20055;-79
2022/07/08 10:25:32;;;;;;;11.52;4.45;;;20.40;99.90;;;;;;5083419;28;20044;-78
2022/07/08 10:28:06;;;;;;;15.23;4.18;;;20.60;99.90;;;;;;5076098;28;20036;-79
2022/07/08 10:30:52;;;;;;;16.00;4.45;;;20.70;99.90;;;;;;5082762;28;20036;-79
2022/07/08 10:33:29;;;;;;;18.38;4.18;;;20.80;99.90;;;;;;5074051;28;20116;-78
2022/07/08 10:36:08;;;;;;;12.40;3.85;;;20.90;99.90;;;;;;5073592;28;20036;-79
2022/07/08 10:38:40;;;;;;;18.23;4.13;;;20.90;99.90;;;;;;5072633;28;20036;-79
2022/07/08 10:41:10;;;;;;;14.13;4.30;;;21.00;99.90;;;;;;5073696;28;20511;-79
2022/07/08 10:43:37;;;;;;;13.00;3.72;;;21.20;99.90;;;;;;5073547;28;20120;-78
2022/07/08 10:46:17;;;;;;;16.25;4.65;;;21.30;99.90;;;;;;5073215;28;20056;-78
2022/07/08 10:48:45;;;;;;;11.50;3.80;;;21.50;99.90;;;;;;5076952;28;20028;-78
2022/07/08 10:51:20;;;;;;;10.35;4.50;;;21.70;99.90;;;;;;5079961;28;20080;-78
2022/07/08 10:53:52;;;;;;;16.85;4.78;;;21.80;99.90;;;;;;5073530;28;20051;-78
2022/07/08 10:56:50;;;;;;;14.00;4.82;;;21.90;99.90;;;;;;5073607;28;20148;-78
2022/07/08 10:59:19;;;;;;;11.23;4.53;;;22.00;99.90;;;;;;5081827;28;20040;-78
2022/07/08 11:01:58;;;;;;;18.42;4.38;;;21.90;99.90;;;;;;5076101;28;20390;-78
2022/07/08 11:04:33;;;;;;;11.10;4.13;;;21.90;99.90;;;;;;5073568;28;20041;-79
2022/07/08 11:09:44;;;;;;;12.70;4.50;;;21.90;99.90;;;;;;5075672;28;20428;-78
2022/07/08 11:12:15;;;;;;;14.30;4.43;;;21.80;99.90;;;;;;5091878;28;20055;-79
2022/07/08 11:14:45;;;;;;;15.82;4.90;;;21.90;99.90;;;;;;5093508;28;20130;-79
2022/07/08 11:17:22;;;;;;;12.93;4.20;;;22.10;99.90;;;;;;5092909;28;20032;-78
2022/07/08 11:19:50;;;;;;;15.20;4.90;;;22.20;99.90;;;;;;5082213;28;20410;-78
2022/07/08 11:22:15;;;;;;;11.35;4.00;;;22.30;99.90;;;;;;5093481;28;20079;-79
2022/07/08 11:24:43;;;;;;;14.32;5.72;;;22.00;99.90;;;;;;5090394;28;20117;-78
2022/07/08 11:27:09;;;;;;;14.05;4.47;;;22.00;99.90;;;;;;5078317;28;20063;-78
2022/07/08 11:29:35;;;;;;;9.88;4.32;;;22.00;99.90;;;;;;5077307;28;20682;-79
2022/07/08 11:32:04;;;;;;;11.35;4.30;;;21.90;99.90;;;;;;5084251;28;20139;-79
2022/07/08 11:34:30;;;;;;;14.07;4.05;;;21.80;99.90;;;;;;5071099;28;20438;-78
2022/07/08 11:36:58;;;;;;;11.38;4.68;;;21.70;99.90;;;;;;5069561;28;20403;-79
2022/07/08 11:39:24;;;;;;;10.50;3.80;;;21.80;99.90;;;;;;5070330;28;20041;-78
2022/07/08 11:41:50;;;;;;;15.88;5.10;;;21.80;99.90;;;;;;5073044;28;20055;-78
2022/07/08 11:44:20;;;;;;;12.85;4.38;;;21.90;99.90;;;;;;5073080;28;20045;-79
2022/07/08 11:46:53;;;;;;;11.63;4.28;;;21.90;99.90;;;;;;5072879;28;20056;-78
2022/07/08 11:49:20;;;;;;;17.02;4.38;;;21.90;99.90;;;;;;5072865;28;20430;-78
2022/07/08 11:51:51;;;;;;;18.00;4.55;;;21.70;99.90;;;;;;5072841;28;20041;-78
2022/07/08 11:54:21;;;;;;;15.68;4.50;;;21.70;99.90;;;;;;5072294;28;20033;-78
2022/07/08 11:56:47;;;;;;;13.98;4.20;;;21.70;99.90;;;;;;5073383;28;20045;-78
2022/07/08 11:59:23;;;;;;;14.07;4.00;;;21.80;99.90;;;;;;5076180;28;20046;-79
2022/07/08 12:01:53;;;;;;;9.27;4.07;;;21.80;99.90;;;;;;5084504;28;20483;-78
2022/07/08 12:04:19;;;;;;;15.45;4.43;;;21.90;99.90;;;;;;5096419;28;20558;-78
2022/07/08 12:06:47;;;;;;;11.77;4.10;;;21.90;99.90;;;;;;5096833;28;20128;-78
2022/07/08 12:09:17;;;;;;;11.32;3.60;;;22.00;99.90;;;;;;5096825;28;20036;-78
2022/07/08 12:11:48;;;;;;;9.88;4.10;;;22.10;99.90;;;;;;5095122;28;20047;-79
2022/07/08 12:14:14;;;;;;;14.90;3.70;;;22.00;99.90;;;;;;5096381;28;20050;-79
2022/07/08 12:16:42;;;;;;;11.55;4.40;;;22.10;99.90;;;;;;5096662;28;20048;-79
2022/07/08 12:19:24;;;;;;;9.10;3.70;;;22.30;99.90;;;;;;5096427;28;20044;-79
2022/07/08 12:21:50;;;;;;;12.73;4.22;;;22.50;99.90;;;;;;5096320;28;20054;-78
2022/07/08 12:24:22;;;;;;;17.50;4.47;;;22.60;99.90;;;;;;5096030;28;20131;-78
2022/07/08 12:26:59;;;;;;;20.35;4.50;;;22.50;99.90;;;;;;5095034;28;20105;-77
2022/07/08 12:29:26;;;;;;;12.63;3.80;;;22.40;99.90;;;;;;5095153;28;20052;-79
2022/07/08 12:31:53;;;;;;;16.25;3.63;;;22.50;99.90;;;;;;5096387;28;20089;-78
2022/07/08 12:34:21;;;;;;;13.15;4.15;;;22.50;99.90;;;;;;5094947;28;20040;-78
2022/07/08 12:36:47;;;;;;;15.43;4.65;;;22.40;99.90;;;;;;5096227;28;20040;-78
2022/07/08 12:39:21;;;;;;;28.88;5.38;;;22.40;99.90;;;;;;5096180;28;20036;-78
2022/07/08 12:42:02;;;;;;;16.67;5.18;;;22.40;99.90;;;;;;5095887;28;20127;-79
2022/07/08 12:44:41;;;;;;;25.30;4.47;;;22.60;99.90;;;;;;5095854;28;20047;-78
2022/07/08 12:47:13;;;;;;;15.15;4.18;;;22.70;99.90;;;;;;5096050;28;20044;-78
2022/07/08 12:49:41;;;;;;;25.40;4.80;;;22.70;99.90;;;;;;5095770;28;20052;-78